sensor_id;sensor_type;location;lat;lon;timestamp;P1;durP1;ratioP1;P2;durP2;ratioP2
55310;SDS011;41173;52.634;-8.666;2023-10-08T17:56:54;0.00;;;0.00;;
55310;SDS011;41173;52.634;-8.666;2023-10-08T17:59:20;0.03;;;0.00;;
55310;SDS011;41173;52.634;-8.666;2023-10-08T18:01:47;0.00;;;0.00;;
55310;SDS011;41173;52.634;-8.666;2023-10-08T18:04:13;0.10;;;0.00;;
55310;SDS011;41173;52.634;-8.666;2023-10-08T18:06:39;0.00;;;0.00;;
55310;SDS011;41173;52.634;-8.666;2023-10-08T18:09:06;0.00;;;0.00;;
55310;SDS011;41173;52.634;-8.666;2023-10-08T18:11:35;0.00;;;0.00;;
55310;SDS011;41173;52.634;-8.666;2023-10-08T18:14:07;0.00;;;0.00;;
55310;SDS011;41173;52.634;-8.666;2023-10-08T18:16:37;0.10;;;0.05;;
55310;SDS011;41173;52.634;-8.666;2023-10-08T18:19:06;0.00;;;0.00;;
55310;SDS011;41173;52.634;-8.666;2023-10-08T18:21:33;0.00;;;0.00;;
55310;SDS011;41173;52.634;-8.666;2023-10-08T18:24:02;0.00;;;0.00;;
55310;SDS011;41173;52.634;-8.666;2023-10-08T18:26:32;1.30;;;0.00;;
55310;SDS011;41173;52.634;-8.666;2023-10-08T18:28:58;0.00;;;0.00;;
55310;SDS011;41173;52.634;-8.666;2023-10-08T18:31:24;0.00;;;0.00;;
55310;SDS011;41173;52.634;-8.666;2023-10-08T18:33:51;0.20;;;0.10;;
55310;SDS011;41173;52.634;-8.666;2023-10-08T18:36:17;0.07;;;0.07;;
55310;SDS011;41173;52.634;-8.666;2023-10-08T18:38:43;0.00;;;0.00;;
55310;SDS011;41173;52.634;-8.666;2023-10-08T18:41:09;0.10;;;0.00;;
55310;SDS011;41173;52.634;-8.666;2023-10-08T18:43:37;0.20;;;0.10;;
55310;SDS011;41173;52.634;-8.666;2023-10-08T18:46:04;0.10;;;0.10;;
55310;SDS011;41173;52.634;-8.666;2023-10-08T18:48:31;0.40;;;0.10;;
55310;SDS011;41173;52.634;-8.666;2023-10-08T18:51:13;0.05;;;0.00;;
55310;SDS011;41173;52.634;-8.666;2023-10-08T18:53:40;0.25;;;0.10;;
55310;SDS011;41173;52.634;-8.666;2023-10-08T18:56:08;0.10;;;0.10;;
55310;SDS011;41173;52.634;-8.666;2023-10-08T18:58:39;0.10;;;0.10;;
55310;SDS011;41173;52.634;-8.666;2023-10-08T19:01:05;0.10;;;0.10;;
55310;SDS011;41173;52.634;-8.666;2023-10-08T19:03:32;2.08;;;0.10;;
55310;SDS011;41173;52.634;-8.666;2023-10-08T19:05:59;0.20;;;0.10;;
55310;SDS011;41173;52.634;-8.666;2023-10-08T19:08:30;0.13;;;0.10;;
55310;SDS011;41173;52.634;-8.666;2023-10-08T19:10:59;0.10;;;0.10;;
55310;SDS011;41173;52.634;-8.666;2023-10-08T19:13:25;0.30;;;0.13;;
55310;SDS011;41173;52.634;-8.666;2023-10-08T19:15:53;0.77;;;0.20;;
55310;SDS011;41173;52.634;-8.666;2023-10-08T19:18:19;0.20;;;0.20;;
55310;SDS011;41173;52.634;-8.666;2023-10-08T19:20:44;0.35;;;0.22;;
55310;SDS011;41173;52.634;-8.666;2023-10-08T19:23:10;0.20;;;0.20;;
55310;SDS011;41173;52.634;-8.666;2023-10-08T19:25:36;0.40;;;0.40;;
55310;SDS011;41173;52.634;-8.666;2023-10-08T19:28:04;0.60;;;0.60;;
55310;SDS011;41173;52.634;-8.666;2023-10-08T19:30:33;1.02;;;0.60;;
55310;SDS011;41173;52.634;-8.666;2023-10-08T19:32:59;0.57;;;0.57;;
55310;SDS011;41173;52.634;-8.666;2023-10-08T19:35:27;1.23;;;1.10;;
55310;SDS011;41173;52.634;-8.666;2023-10-08T19:37:56;1.13;;;1.00;;
55310;SDS011;41173;52.634;-8.666;2023-10-08T19:40:22;1.40;;;1.30;;
55310;SDS011;41173;52.634;-8.666;2023-10-08T19:42:47;1.30;;;1.20;;
55310;SDS011;41173;52.634;-8.666;2023-10-08T19:45:13;1.23;;;1.13;;
55310;SDS011;41173;52.634;-8.666;2023-10-08T19:47:46;1.20;;;1.10;;
55310;SDS011;41173;52.634;-8.666;2023-10-08T19:50:12;1.65;;;1.10;;
55310;SDS011;41173;52.634;-8.666;2023-10-08T19:52:42;1.10;;;0.93;;
55310;SDS011;41173;52.634;-8.666;2023-10-08T19:55:08;0.85;;;0.85;;
55310;SDS011;41173;52.634;-8.666;2023-10-08T19:57:35;1.30;;;0.80;;
55310;SDS011;41173;52.634;-8.666;2023-10-08T20:00:07;0.60;;;0.60;;
55310;SDS011;41173;52.634;-8.666;2023-10-08T20:02:42;1.27;;;0.50;;
55310;SDS011;41173;52.634;-8.666;2023-10-08T20:05:09;0.60;;;0.50;;
55310;SDS011;41173;52.634;-8.666;2023-10-08T20:07:46;0.50;;;0.50;;
55310;SDS011;41173;52.634;-8.666;2023-10-08T20:10:13;0.95;;;0.70;;
55310;SDS011;41173;52.634;-8.666;2023-10-08T20:12:45;1.42;;;0.90;;
55310;SDS011;41173;52.634;-8.666;2023-10-08T20:15:12;1.88;;;0.95;;
55310;SDS011;41173;52.634;-8.666;2023-10-08T20:17:43;0.70;;;0.65;;
55310;SDS011;41173;52.634;-8.666;2023-10-08T20:20:10;1.50;;;0.30;;
55310;SDS011;41173;52.634;-8.666;2023-10-08T20:22:43;0.50;;;0.30;;
55310;SDS011;41173;52.634;-8.666;2023-10-08T20:25:11;0.10;;;0.10;;
55310;SDS011;41173;52.634;-8.666;2023-10-08T20:27:41;0.10;;;0.10;;
55310;SDS011;41173;52.634;-8.666;2023-10-08T20:30:07;0.20;;;0.20;;
55310;SDS011;41173;52.634;-8.666;2023-10-08T20:32:35;0.40;;;0.10;;
55310;SDS011;41173;52.634;-8.666;2023-10-08T20:35:06;0.20;;;0.20;;
55310;SDS011;41173;52.634;-8.666;2023-10-08T20:39:58;0.30;;;0.20;;
55310;SDS011;41173;52.634;-8.666;2023-10-08T20:42:24;0.43;;;0.30;;
55310;SDS011;41173;52.634;-8.666;2023-10-08T20:44:51;0.30;;;0.20;;
55310;SDS011;41173;52.634;-8.666;2023-10-08T20:47:16;0.20;;;0.20;;
55310;SDS011;41173;52.634;-8.666;2023-10-08T20:49:42;0.37;;;0.20;;
55310;SDS011;41173;52.634;-8.666;2023-10-08T20:54:34;0.20;;;0.20;;
55310;SDS011;41173;52.634;-8.666;2023-10-08T20:56:59;0.33;;;0.17;;
55310;SDS011;41173;52.634;-8.666;2023-10-08T20:59:25;0.17;;;0.10;;
55310;SDS011;41173;52.634;-8.666;2023-10-08T21:01:51;0.22;;;0.10;;
55310;SDS011;41173;52.634;-8.666;2023-10-08T21:04:19;0.77;;;0.20;;
55310;SDS011;41173;52.634;-8.666;2023-10-08T21:06:46;0.30;;;0.20;;
55310;SDS011;41173;52.634;-8.666;2023-10-08T21:09:12;0.17;;;0.17;;
55310;SDS011;41173;52.634;-8.666;2023-10-08T21:11:41;0.10;;;0.10;;
55310;SDS011;41173;52.634;-8.666;2023-10-08T21:14:07;0.10;;;0.10;;
55310;SDS011;41173;52.634;-8.666;2023-10-08T21:16:34;0.10;;;0.10;;
55310;SDS011;41173;52.634;-8.666;2023-10-08T21:18:59;0.07;;;0.07;;
55310;SDS011;41173;52.634;-8.666;2023-10-08T21:21:25;0.07;;;0.07;;
55310;SDS011;41173;52.634;-8.666;2023-10-08T21:23:50;0.90;;;0.10;;
55310;SDS011;41173;52.634;-8.666;2023-10-08T21:26:19;0.10;;;0.10;;
55310;SDS011;41173;52.634;-8.666;2023-10-08T21:28:45;0.10;;;0.10;;
55310;SDS011;41173;52.634;-8.666;2023-10-08T21:31:10;0.20;;;0.20;;
55310;SDS011;41173;52.634;-8.666;2023-10-08T21:33:37;0.40;;;0.10;;
55310;SDS011;41173;52.634;-8.666;2023-10-08T21:36:03;0.50;;;0.08;;
55310;SDS011;41173;52.634;-8.666;2023-10-08T21:38:29;0.10;;;0.07;;
55310;SDS011;41173;52.634;-8.666;2023-10-08T21:40:58;0.33;;;0.10;;
55310;SDS011;41173;52.634;-8.666;2023-10-08T21:43:26;0.10;;;0.10;;
55310;SDS011;41173;52.634;-8.666;2023-10-08T21:45:52;0.10;;;0.10;;
55310;SDS011;41173;52.634;-8.666;2023-10-08T21:48:17;0.00;;;0.00;;
55310;SDS011;41173;52.634;-8.666;2023-10-08T21:50:43;0.10;;;0.10;;
55310;SDS011;41173;52.634;-8.666;2023-10-08T21:53:08;0.07;;;0.07;;
55310;SDS011;41173;52.634;-8.666;2023-10-08T21:55:34;0.28;;;0.10;;
55310;SDS011;41173;52.634;-8.666;2023-10-08T21:58:00;0.13;;;0.10;;
55310;SDS011;41173;52.634;-8.666;2023-10-08T22:00:25;0.27;;;0.10;;
55310;SDS011;41173;52.634;-8.666;2023-10-08T22:02:55;0.60;;;0.10;;
55310;SDS011;41173;52.634;-8.666;2023-10-08T22:05:22;0.08;;;0.05;;
55310;SDS011;41173;52.634;-8.666;2023-10-08T22:07:48;0.10;;;0.10;;
55310;SDS011;41173;52.634;-8.666;2023-10-08T22:10:15;0.10;;;0.10;;
55310;SDS011;41173;52.634;-8.666;2023-10-08T22:12:42;0.20;;;0.10;;
55310;SDS011;41173;52.634;-8.666;2023-10-08T22:15:11;0.65;;;0.00;;
55310;SDS011;41173;52.634;-8.666;2023-10-08T22:17:51;0.10;;;0.10;;
55310;SDS011;41173;52.634;-8.666;2023-10-08T22:20:17;0.10;;;0.10;;
55310;SDS011;41173;52.634;-8.666;2023-10-08T22:23:18;0.10;;;0.10;;
55310;SDS011;41173;52.634;-8.666;2023-10-08T22:25:50;0.10;;;0.10;;
55310;SDS011;41173;52.634;-8.666;2023-10-08T22:28:17;0.10;;;0.10;;
55310;SDS011;41173;52.634;-8.666;2023-10-08T22:30:45;0.10;;;0.10;;
55310;SDS011;41173;52.634;-8.666;2023-10-08T22:33:25;0.10;;;0.10;;
55310;SDS011;41173;52.634;-8.666;2023-10-08T22:35:58;0.73;;;0.10;;
55310;SDS011;41173;52.634;-8.666;2023-10-08T22:38:29;0.10;;;0.10;;
55310;SDS011;41173;52.634;-8.666;2023-10-08T22:40:54;0.10;;;0.10;;
55310;SDS011;41173;52.634;-8.666;2023-10-08T22:43:22;0.20;;;0.10;;
55310;SDS011;41173;52.634;-8.666;2023-10-08T22:45:48;0.10;;;0.10;;
55310;SDS011;41173;52.634;-8.666;2023-10-08T22:48:15;0.10;;;0.10;;
55310;SDS011;41173;52.634;-8.666;2023-10-08T22:51:03;0.00;;;0.00;;
55310;SDS011;41173;52.634;-8.666;2023-10-08T22:53:34;0.00;;;0.00;;
55310;SDS011;41173;52.634;-8.666;2023-10-08T22:56:01;0.10;;;0.10;;
55310;SDS011;41173;52.634;-8.666;2023-10-08T22:58:28;0.08;;;0.08;;
55310;SDS011;41173;52.634;-8.666;2023-10-08T23:00:56;0.03;;;0.03;;
55310;SDS011;41173;52.634;-8.666;2023-10-08T23:03:25;0.05;;;0.05;;
55310;SDS011;41173;52.634;-8.666;2023-10-08T23:05:54;0.10;;;0.10;;
55310;SDS011;41173;52.634;-8.666;2023-10-08T23:08:22;0.10;;;0.10;;
55310;SDS011;41173;52.634;-8.666;2023-10-08T23:10:48;0.00;;;0.00;;
55310;SDS011;41173;52.634;-8.666;2023-10-08T23:13:16;0.00;;;0.00;;
55310;SDS011;41173;52.634;-8.666;2023-10-08T23:15:41;0.10;;;0.10;;
55310;SDS011;41173;52.634;-8.666;2023-10-08T23:18:08;0.10;;;0.10;;
55310;SDS011;41173;52.634;-8.666;2023-10-08T23:23:01;0.10;;;0.10;;
55310;SDS011;41173;52.634;-8.666;2023-10-08T23:25:27;0.00;;;0.00;;
55310;SDS011;41173;52.634;-8.666;2023-10-08T23:27:53;0.00;;;0.00;;
55310;SDS011;41173;52.634;-8.666;2023-10-08T23:30:18;0.43;;;0.10;;
55310;SDS011;41173;52.634;-8.666;2023-10-08T23:32:43;0.00;;;0.00;;
55310;SDS011;41173;52.634;-8.666;2023-10-08T23:35:09;0.10;;;0.10;;
55310;SDS011;41173;52.634;-8.666;2023-10-08T23:37:42;0.00;;;0.00;;
55310;SDS011;41173;52.634;-8.666;2023-10-08T23:40:15;0.00;;;0.00;;
55310;SDS011;41173;52.634;-8.666;2023-10-08T23:42:47;0.00;;;0.00;;
55310;SDS011;41173;52.634;-8.666;2023-10-08T23:45:18;0.00;;;0.00;;
55310;SDS011;41173;52.634;-8.666;2023-10-08T23:47:56;0.10;;;0.00;;
55310;SDS011;41173;52.634;-8.666;2023-10-08T23:50:43;0.22;;;0.10;;
55310;SDS011;41173;52.634;-8.666;2023-10-08T23:53:09;0.00;;;0.00;;
55310;SDS011;41173;52.634;-8.666;2023-10-08T23:55:39;0.45;;;0.00;;
55310;SDS011;41173;52.634;-8.666;2023-10-08T23:58:25;0.00;;;0.00;;
